Hartford, Connecticut
Traffic Map
Current Weather Conditions
Hartford, Connecticut
Overcast Moderate Fog
Overcast

Feels Like: 9°
Wind Chill: Ceiling: 100
Heat Index: Visibility: 0.25mi
Dew Point: Wind: 3mph
Humidity: 96% Direction: 160° (SSE)
Pressure: 30.03in Gusts: 0mph
Raw Report DataKHFD 170853Z AUTO 16003KT 1/4SM FG VV001 09/08 A3003 RMK AO2 SLP167 T00890083 55001 $
Traffic Incident Summary
Active as of:
Severity:
Category:
InformationThere was an issue retrieving the traffic information for this location. Please try a different location or try again shortly.
Advertisements
Track Severe Weather on mobile